FDX610 KIND-KATL
Flight info
| Callsign | FDX610 |
|---|---|
| Flight time | 1h 8m |
| Altitude | 34000 |
| Route | DAWNN1 MYS HITMN/N0467F330 NEWBB IHAVE MTHEW CHPPR1 |
| Aircraft | B77L/H-SDE1E2E3FGHIJ2J3J4J5M1RWXY/LB1D1 |
Departure
| Time | 2026-05-04 21:59 |
|---|---|
| Airport | Indianapolis International Airport (KIND) |
Arrival
| Time | 2026-05-04 23:07 |
|---|---|
| Airport | Hartsfield Jackson Atlanta International Airport (KATL) |
| Time | Latitude | Longitude | Altitude | Speed | Heading |
|---|---|---|---|---|---|
| 2026-05-04 21:25 | 39.71288 | -86.28257 | 793 ft | 0 kts | 133° |
| 2026-05-04 21:48 | 39.71302 | -86.28274 | 793 ft | 4 kts | 136° |
| 2026-05-04 21:49 | 39.71317 | -86.28300 | 793 ft | 4 kts | 101° |
| 2026-05-04 21:49 | 39.71315 | -86.28331 | 793 ft | 4 kts | 57° |
| 2026-05-04 21:49 | 39.71308 | -86.28344 | 793 ft | 1 kts | 45° |
| 2026-05-04 21:54 | 39.71308 | -86.28343 | 793 ft | 1 kts | 45° |
| 2026-05-04 21:54 | 39.71312 | -86.28338 | 793 ft | 2 kts | 45° |
| 2026-05-04 21:55 | 39.71325 | -86.28321 | 793 ft | 4 kts | 45° |
| 2026-05-04 21:55 | 39.71353 | -86.28283 | 793 ft | 7 kts | 45° |
| 2026-05-04 21:55 | 39.71399 | -86.28271 | 792 ft | 8 kts | 342° |
| 2026-05-04 21:55 | 39.71443 | -86.28314 | 793 ft | 8 kts | 318° |
| 2026-05-04 21:56 | 39.71489 | -86.28350 | 793 ft | 8 kts | 3° |
| 2026-05-04 21:56 | 39.71544 | -86.28304 | 791 ft | 11 kts | 43° |
| 2026-05-04 21:56 | 39.71595 | -86.28221 | 791 ft | 12 kts | 62° |
| 2026-05-04 21:56 | 39.71630 | -86.28121 | 793 ft | 12 kts | 64° |
| 2026-05-04 21:57 | 39.71680 | -86.28033 | 793 ft | 12 kts | 45° |
| 2026-05-04 21:57 | 39.71744 | -86.27951 | 794 ft | 13 kts | 45° |
| 2026-05-04 21:57 | 39.71809 | -86.27869 | 795 ft | 12 kts | 44° |
| 2026-05-04 21:57 | 39.71858 | -86.27824 | 796 ft | 9 kts | 3° |
| 2026-05-04 21:58 | 39.71908 | -86.27875 | 796 ft | 10 kts | 317° |
| 2026-05-04 21:58 | 39.71958 | -86.27948 | 794 ft | 12 kts | 289° |
| 2026-05-04 21:58 | 39.71913 | -86.28032 | 795 ft | 13 kts | 223° |
| 2026-05-04 21:58 | 39.71741 | -86.28245 | 791 ft | 67 kts | 223° |
| 2026-05-04 21:59 | 39.71200 | -86.28928 | 796 ft | 146 kts | 223° |
| 2026-05-04 21:59 | 39.70384 | -86.29990 | 1084 ft | 182 kts | 221° |
| 2026-05-04 21:59 | 39.69457 | -86.31156 | 2010 ft | 181 kts | 221° |
| 2026-05-04 21:59 | 39.68579 | -86.32217 | 3260 ft | 166 kts | 220° |
| 2026-05-04 22:00 | 39.67717 | -86.33194 | 4222 ft | 165 kts | 220° |
| 2026-05-04 22:00 | 39.66851 | -86.34200 | 4993 ft | 170 kts | 221° |
| 2026-05-04 22:00 | 39.65981 | -86.35297 | 5752 ft | 176 kts | 221° |
| 2026-05-04 22:00 | 39.64839 | -86.35933 | 6381 ft | 192 kts | 191° |
| 2026-05-04 22:01 | 39.63499 | -86.35886 | 7218 ft | 194 kts | 183° |
| 2026-05-04 22:01 | 39.62127 | -86.35728 | 7895 ft | 208 kts | 184° |
| 2026-05-04 22:01 | 39.60525 | -86.35559 | 7734 ft | 253 kts | 181° |
| 2026-05-04 22:01 | 39.58728 | -86.35300 | 8357 ft | 265 kts | 181° |
| 2026-05-04 22:02 | 39.56868 | -86.35026 | 9378 ft | 271 kts | 182° |
| 2026-05-04 22:02 | 39.54978 | -86.34757 | 10331 ft | 278 kts | 182° |
| 2026-05-04 22:02 | 39.52969 | -86.34493 | 10827 ft | 305 kts | 182° |
| 2026-05-04 22:02 | 39.50765 | -86.34221 | 11050 ft | 340 kts | 181° |
| 2026-05-04 22:03 | 39.48316 | -86.33912 | 11877 ft | 355 kts | 181° |
| 2026-05-04 22:03 | 39.45852 | -86.33595 | 12753 ft | 364 kts | 180° |
| 2026-05-04 22:03 | 39.43303 | -86.33270 | 13019 ft | 371 kts | 180° |
| 2026-05-04 22:03 | 39.40726 | -86.32943 | 13010 ft | 371 kts | 180° |
| 2026-05-04 22:04 | 39.38158 | -86.32620 | 13243 ft | 373 kts | 180° |
| 2026-05-04 22:04 | 39.35548 | -86.32300 | 14300 ft | 378 kts | 180° |
| 2026-05-04 22:04 | 39.32915 | -86.31978 | 15472 ft | 381 kts | 180° |
| 2026-05-04 22:04 | 39.30255 | -86.31656 | 16563 ft | 387 kts | 180° |
| 2026-05-04 22:05 | 39.27534 | -86.31329 | 17553 ft | 395 kts | 180° |
| 2026-05-04 22:05 | 39.24765 | -86.30996 | 18489 ft | 403 kts | 180° |
| 2026-05-04 22:05 | 39.21954 | -86.30658 | 19392 ft | 409 kts | 180° |
| 2026-05-04 22:05 | 39.19102 | -86.30314 | 20353 ft | 413 kts | 180° |
| 2026-05-04 22:06 | 39.16223 | -86.29966 | 21298 ft | 418 kts | 180° |
| 2026-05-04 22:06 | 39.13345 | -86.29619 | 22208 ft | 423 kts | 180° |
| 2026-05-04 22:06 | 39.10393 | -86.29264 | 23108 ft | 429 kts | 180° |
| 2026-05-04 22:06 | 39.07395 | -86.28904 | 23888 ft | 435 kts | 180° |
| 2026-05-04 22:07 | 39.04359 | -86.28541 | 24549 ft | 442 kts | 180° |
| 2026-05-04 22:07 | 39.01252 | -86.28170 | 25184 ft | 450 kts | 180° |
| 2026-05-04 22:07 | 38.98118 | -86.27795 | 25895 ft | 455 kts | 179° |
| 2026-05-04 22:07 | 38.94952 | -86.27414 | 26660 ft | 459 kts | 179° |
| 2026-05-04 22:08 | 38.91753 | -86.27029 | 27391 ft | 464 kts | 179° |
| 2026-05-04 22:08 | 38.88525 | -86.26643 | 28077 ft | 469 kts | 179° |
| 2026-05-04 22:08 | 38.85250 | -86.26252 | 28737 ft | 475 kts | 179° |
| 2026-05-04 22:08 | 38.81946 | -86.25857 | 29421 ft | 479 kts | 179° |
| 2026-05-04 22:09 | 38.78620 | -86.25459 | 30259 ft | 478 kts | 179° |
| 2026-05-04 22:09 | 38.75328 | -86.25064 | 31147 ft | 473 kts | 179° |
| 2026-05-04 22:09 | 38.72058 | -86.24672 | 32034 ft | 470 kts | 179° |
| 2026-05-04 22:09 | 38.68851 | -86.24291 | 32834 ft | 468 kts | 179° |
| 2026-05-04 22:10 | 38.65616 | -86.23908 | 33567 ft | 467 kts | 179° |
| 2026-05-04 22:10 | 38.62352 | -86.23524 | 33841 ft | 473 kts | 179° |
| 2026-05-04 22:10 | 38.59077 | -86.23137 | 33805 ft | 471 kts | 179° |
| 2026-05-04 22:11 | 38.52616 | -86.22871 | 33817 ft | 461 kts | 186° |
| 2026-05-04 22:11 | 38.46179 | -86.23084 | 33830 ft | 464 kts | 186° |
| 2026-05-04 22:12 | 38.39709 | -86.23282 | 33835 ft | 466 kts | 186° |
| 2026-05-04 22:12 | 38.33214 | -86.23448 | 33830 ft | 467 kts | 186° |
| 2026-05-04 22:13 | 38.26768 | -86.23601 | 33837 ft | 466 kts | 186° |
| 2026-05-04 22:13 | 38.20280 | -86.23756 | 33834 ft | 465 kts | 186° |
| 2026-05-04 22:14 | 38.13824 | -86.23911 | 33838 ft | 463 kts | 186° |
| 2026-05-04 22:14 | 38.07380 | -86.24066 | 33836 ft | 462 kts | 186° |
| 2026-05-04 22:15 | 38.00965 | -86.24222 | 33844 ft | 462 kts | 186° |
| 2026-05-04 22:15 | 37.94574 | -86.24376 | 33849 ft | 462 kts | 186° |
| 2026-05-04 22:16 | 37.88155 | -86.24777 | 33823 ft | 458 kts | 193° |
| 2026-05-04 22:16 | 37.81939 | -86.26325 | 33855 ft | 454 kts | 197° |
| 2026-05-04 22:17 | 37.75748 | -86.27965 | 33851 ft | 454 kts | 197° |
| 2026-05-04 22:17 | 37.69588 | -86.29562 | 33852 ft | 454 kts | 197° |
| 2026-05-04 22:18 | 37.63387 | -86.31147 | 33850 ft | 453 kts | 197° |
| 2026-05-04 22:18 | 37.57203 | -86.32718 | 33853 ft | 452 kts | 197° |
| 2026-05-04 22:19 | 37.51037 | -86.34282 | 33860 ft | 451 kts | 197° |
| 2026-05-04 22:19 | 37.44883 | -86.35843 | 33867 ft | 450 kts | 197° |
| 2026-05-04 22:20 | 37.38771 | -86.37389 | 33856 ft | 450 kts | 197° |
| 2026-05-04 22:20 | 37.32631 | -86.38941 | 33867 ft | 450 kts | 197° |
| 2026-05-04 22:21 | 37.26490 | -86.40492 | 33884 ft | 450 kts | 197° |
| 2026-05-04 22:21 | 37.20233 | -86.41450 | 33908 ft | 458 kts | 186° |
| 2026-05-04 22:22 | 37.13885 | -86.40880 | 33609 ft | 456 kts | 179° |
| 2026-05-04 22:22 | 37.10732 | -86.40435 | 33243 ft | 457 kts | 179° |
| 2026-05-04 22:22 | 37.07611 | -86.39994 | 32913 ft | 457 kts | 179° |
| 2026-05-04 22:23 | 37.01274 | -86.39123 | 32912 ft | 459 kts | 179° |
| 2026-05-04 22:23 | 36.94912 | -86.38276 | 32901 ft | 459 kts | 179° |
| 2026-05-04 22:24 | 36.88565 | -86.37441 | 32904 ft | 457 kts | 179° |
| 2026-05-04 22:24 | 36.82235 | -86.36612 | 32901 ft | 456 kts | 179° |
| 2026-05-04 22:25 | 36.75957 | -86.35792 | 32908 ft | 456 kts | 179° |
| 2026-05-04 22:25 | 36.69633 | -86.34967 | 32906 ft | 456 kts | 179° |
| 2026-05-04 22:26 | 36.63322 | -86.34143 | 32908 ft | 456 kts | 179° |
| 2026-05-04 22:26 | 36.56998 | -86.33320 | 32919 ft | 456 kts | 179° |
| 2026-05-04 22:27 | 36.50711 | -86.32503 | 32943 ft | 457 kts | 179° |
| 2026-05-04 22:27 | 36.44368 | -86.31679 | 32918 ft | 458 kts | 179° |
| 2026-05-04 22:28 | 36.38037 | -86.30859 | 32944 ft | 457 kts | 179° |
| 2026-05-04 22:28 | 36.31704 | -86.30039 | 32945 ft | 457 kts | 179° |
| 2026-05-04 22:29 | 36.25380 | -86.29222 | 32941 ft | 457 kts | 179° |
| 2026-05-04 22:29 | 36.19062 | -86.28407 | 32934 ft | 456 kts | 179° |
| 2026-05-04 22:30 | 36.12791 | -86.27600 | 32939 ft | 455 kts | 179° |
| 2026-05-04 22:30 | 36.06488 | -86.26790 | 32932 ft | 454 kts | 179° |
| 2026-05-04 22:31 | 36.00199 | -86.25982 | 32933 ft | 454 kts | 179° |
| 2026-05-04 22:31 | 35.93919 | -86.25178 | 32934 ft | 454 kts | 179° |
| 2026-05-04 22:32 | 35.87637 | -86.24375 | 32957 ft | 454 kts | 179° |
| 2026-05-04 22:32 | 35.81350 | -86.23572 | 32963 ft | 454 kts | 179° |
| 2026-05-04 22:33 | 35.75106 | -86.22776 | 32961 ft | 454 kts | 179° |
| 2026-05-04 22:33 | 35.68811 | -86.21974 | 32946 ft | 454 kts | 179° |
| 2026-05-04 22:34 | 35.62525 | -86.21175 | 32962 ft | 454 kts | 179° |
| 2026-05-04 22:34 | 35.56236 | -86.20377 | 32972 ft | 454 kts | 179° |
| 2026-05-04 22:35 | 35.49938 | -86.19578 | 32969 ft | 455 kts | 179° |
| 2026-05-04 22:35 | 35.44717 | -86.18847 | 32958 ft | 455 kts | 173° |
| 2026-05-04 22:35 | 35.41712 | -86.17541 | 32985 ft | 464 kts | 154° |
| 2026-05-04 22:36 | 35.39099 | -86.15199 | 32991 ft | 467 kts | 143° |
| 2026-05-04 22:36 | 35.34101 | -86.10063 | 32988 ft | 469 kts | 144° |
| 2026-05-04 22:37 | 35.28995 | -86.05050 | 32988 ft | 471 kts | 145° |
| 2026-05-04 22:37 | 35.23839 | -86.00079 | 32989 ft | 472 kts | 145° |
| 2026-05-04 22:38 | 35.18678 | -85.95148 | 32974 ft | 473 kts | 145° |
| 2026-05-04 22:38 | 35.13507 | -85.90210 | 32858 ft | 467 kts | 145° |
| 2026-05-04 22:38 | 35.10949 | -85.87768 | 32353 ft | 465 kts | 145° |
| 2026-05-04 22:39 | 35.08410 | -85.85343 | 31886 ft | 460 kts | 145° |
| 2026-05-04 22:39 | 35.05899 | -85.82947 | 31402 ft | 456 kts | 145° |
| 2026-05-04 22:39 | 35.03437 | -85.80601 | 30929 ft | 451 kts | 145° |
| 2026-05-04 22:39 | 35.00973 | -85.78254 | 30464 ft | 447 kts | 145° |
| 2026-05-04 22:40 | 34.98529 | -85.75930 | 29987 ft | 443 kts | 145° |
| 2026-05-04 22:40 | 34.96107 | -85.73629 | 29446 ft | 440 kts | 145° |
| 2026-05-04 22:40 | 34.93704 | -85.71346 | 28954 ft | 435 kts | 145° |
| 2026-05-04 22:40 | 34.91324 | -85.69087 | 28468 ft | 430 kts | 145° |
| 2026-05-04 22:41 | 34.88972 | -85.66856 | 28020 ft | 426 kts | 145° |
| 2026-05-04 22:41 | 34.86647 | -85.64652 | 27545 ft | 422 kts | 145° |
| 2026-05-04 22:41 | 34.84337 | -85.62465 | 27098 ft | 419 kts | 145° |
| 2026-05-04 22:41 | 34.82044 | -85.60295 | 26657 ft | 416 kts | 145° |
| 2026-05-04 22:42 | 34.79770 | -85.58145 | 26208 ft | 413 kts | 146° |
| 2026-05-04 22:42 | 34.77512 | -85.56010 | 25774 ft | 410 kts | 145° |
| 2026-05-04 22:42 | 34.75286 | -85.53907 | 25344 ft | 408 kts | 145° |
| 2026-05-04 22:42 | 34.73056 | -85.51800 | 24919 ft | 405 kts | 145° |
| 2026-05-04 22:43 | 34.70830 | -85.49699 | 24492 ft | 403 kts | 146° |
| 2026-05-04 22:43 | 34.68619 | -85.47613 | 24072 ft | 402 kts | 145° |
| 2026-05-04 22:43 | 34.66414 | -85.45534 | 23636 ft | 400 kts | 145° |
| 2026-05-04 22:43 | 34.64220 | -85.43467 | 23142 ft | 398 kts | 146° |
| 2026-05-04 22:44 | 34.62038 | -85.41412 | 22684 ft | 396 kts | 146° |
| 2026-05-04 22:44 | 34.59872 | -85.39372 | 22258 ft | 392 kts | 146° |
| 2026-05-04 22:44 | 34.57721 | -85.37349 | 21824 ft | 389 kts | 146° |
| 2026-05-04 22:44 | 34.55593 | -85.35349 | 21425 ft | 386 kts | 146° |
| 2026-05-04 22:45 | 34.53479 | -85.33362 | 20998 ft | 382 kts | 146° |
| 2026-05-04 22:45 | 34.49309 | -85.29449 | 20177 ft | 376 kts | 146° |
| 2026-05-04 22:45 | 34.47268 | -85.27535 | 19796 ft | 373 kts | 146° |
| 2026-05-04 22:46 | 34.45220 | -85.25618 | 19391 ft | 370 kts | 146° |
| 2026-05-04 22:46 | 34.43191 | -85.23719 | 18988 ft | 367 kts | 146° |
| 2026-05-04 22:46 | 34.41176 | -85.21834 | 18576 ft | 364 kts | 146° |
| 2026-05-04 22:46 | 34.39174 | -85.19962 | 18159 ft | 362 kts | 146° |
| 2026-05-04 22:47 | 34.37189 | -85.18107 | 17703 ft | 359 kts | 146° |
| 2026-05-04 22:47 | 34.35224 | -85.16271 | 17290 ft | 355 kts | 146° |
| 2026-05-04 22:47 | 34.33279 | -85.14456 | 16884 ft | 351 kts | 146° |
| 2026-05-04 22:47 | 34.31358 | -85.12665 | 16490 ft | 347 kts | 146° |
| 2026-05-04 22:48 | 34.29451 | -85.10888 | 16095 ft | 345 kts | 146° |
| 2026-05-04 22:48 | 34.27546 | -85.09115 | 15697 ft | 346 kts | 146° |
| 2026-05-04 22:48 | 34.25637 | -85.07340 | 15306 ft | 346 kts | 146° |
| 2026-05-04 22:48 | 34.23755 | -85.05588 | 14921 ft | 346 kts | 145° |
| 2026-05-04 22:49 | 34.21819 | -85.03788 | 14521 ft | 347 kts | 145° |
| 2026-05-04 22:49 | 34.19905 | -85.02009 | 14149 ft | 347 kts | 145° |
| 2026-05-04 22:49 | 34.17994 | -85.00233 | 13747 ft | 347 kts | 144° |
| 2026-05-04 22:49 | 34.16107 | -84.98480 | 13328 ft | 347 kts | 145° |
| 2026-05-04 22:50 | 34.14202 | -84.96711 | 13009 ft | 342 kts | 145° |
| 2026-05-04 22:50 | 34.12359 | -84.94973 | 12988 ft | 333 kts | 144° |
| 2026-05-04 22:50 | 34.10544 | -84.93251 | 12985 ft | 332 kts | 144° |
| 2026-05-04 22:50 | 34.08730 | -84.91529 | 12992 ft | 331 kts | 144° |
| 2026-05-04 22:51 | 34.06920 | -84.89813 | 12989 ft | 331 kts | 144° |
| 2026-05-04 22:51 | 34.05102 | -84.88091 | 13000 ft | 332 kts | 144° |
| 2026-05-04 22:51 | 34.03285 | -84.86373 | 12987 ft | 332 kts | 144° |
| 2026-05-04 22:51 | 34.01465 | -84.84654 | 12989 ft | 332 kts | 144° |
| 2026-05-04 22:52 | 33.99643 | -84.82933 | 12989 ft | 332 kts | 144° |
| 2026-05-04 22:52 | 33.97820 | -84.81213 | 12987 ft | 332 kts | 144° |
| 2026-05-04 22:52 | 33.95996 | -84.79495 | 12997 ft | 332 kts | 144° |
| 2026-05-04 22:52 | 33.94195 | -84.77796 | 12988 ft | 333 kts | 144° |
| 2026-05-04 22:53 | 33.92372 | -84.76078 | 12986 ft | 333 kts | 144° |
| 2026-05-04 22:53 | 33.90546 | -84.74359 | 12990 ft | 333 kts | 144° |
| 2026-05-04 22:53 | 33.88724 | -84.72645 | 12987 ft | 328 kts | 144° |
| 2026-05-04 22:53 | 33.86955 | -84.70979 | 12956 ft | 317 kts | 144° |
| 2026-05-04 22:54 | 33.85244 | -84.69368 | 12859 ft | 308 kts | 144° |
| 2026-05-04 22:54 | 33.83572 | -84.67796 | 12506 ft | 304 kts | 144° |
| 2026-05-04 22:54 | 33.81908 | -84.66236 | 12101 ft | 302 kts | 144° |
| 2026-05-04 22:54 | 33.80238 | -84.64670 | 12003 ft | 306 kts | 144° |
| 2026-05-04 22:55 | 33.78560 | -84.63095 | 11997 ft | 306 kts | 144° |
| 2026-05-04 22:55 | 33.76889 | -84.61530 | 11987 ft | 303 kts | 144° |
| 2026-05-04 22:55 | 33.75256 | -84.59998 | 11988 ft | 301 kts | 143° |
| 2026-05-04 22:55 | 33.73854 | -84.58143 | 11985 ft | 305 kts | 120° |
| 2026-05-04 22:56 | 33.73251 | -84.55683 | 11999 ft | 311 kts | 95° |
| 2026-05-04 22:56 | 33.73247 | -84.53082 | 12008 ft | 313 kts | 90° |
| 2026-05-04 22:56 | 33.73276 | -84.50451 | 12009 ft | 317 kts | 90° |
| 2026-05-04 22:56 | 33.73288 | -84.47784 | 12006 ft | 318 kts | 91° |
| 2026-05-04 22:57 | 33.73293 | -84.45154 | 11924 ft | 313 kts | 91° |
| 2026-05-04 22:57 | 33.73294 | -84.42560 | 11676 ft | 309 kts | 91° |
| 2026-05-04 22:57 | 33.73296 | -84.39985 | 11279 ft | 307 kts | 91° |
| 2026-05-04 22:57 | 33.73297 | -84.37420 | 10834 ft | 307 kts | 91° |
| 2026-05-04 22:58 | 33.73296 | -84.34862 | 10450 ft | 305 kts | 92° |
| 2026-05-04 22:58 | 33.73295 | -84.32321 | 10079 ft | 303 kts | 92° |
| 2026-05-04 22:58 | 33.73295 | -84.29800 | 9685 ft | 301 kts | 92° |
| 2026-05-04 22:58 | 33.73297 | -84.27299 | 9310 ft | 298 kts | 92° |
| 2026-05-04 22:59 | 33.73301 | -84.24859 | 8967 ft | 293 kts | 92° |
| 2026-05-04 22:59 | 33.73304 | -84.22411 | 8518 ft | 294 kts | 92° |
| 2026-05-04 22:59 | 33.73305 | -84.19970 | 8020 ft | 288 kts | 92° |
| 2026-05-04 22:59 | 33.73307 | -84.17565 | 7528 ft | 289 kts | 92° |
| 2026-05-04 23:00 | 33.73308 | -84.15163 | 7043 ft | 283 kts | 92° |
| 2026-05-04 23:00 | 33.73311 | -84.12809 | 6571 ft | 283 kts | 92° |
| 2026-05-04 23:00 | 33.73312 | -84.10438 | 6154 ft | 283 kts | 92° |
| 2026-05-04 23:00 | 33.73020 | -84.08143 | 6019 ft | 282 kts | 115° |
| 2026-05-04 23:01 | 33.71912 | -84.06242 | 6025 ft | 276 kts | 141° |
| 2026-05-04 23:01 | 33.70260 | -84.05159 | 5783 ft | 269 kts | 166° |
| 2026-05-04 23:01 | 33.68439 | -84.04719 | 5400 ft | 266 kts | 172° |
| 2026-05-04 23:01 | 33.66641 | -84.04445 | 4985 ft | 255 kts | 178° |
| 2026-05-04 23:02 | 33.64919 | -84.04780 | 4560 ft | 255 kts | 205° |
| 2026-05-04 23:02 | 33.63561 | -84.06151 | 4178 ft | 259 kts | 234° |
| 2026-05-04 23:02 | 33.62997 | -84.08132 | 4003 ft | 254 kts | 266° |
| 2026-05-04 23:02 | 33.63371 | -84.10223 | 4011 ft | 261 kts | 292° |
| 2026-05-04 23:03 | 33.64085 | -84.12211 | 3995 ft | 259 kts | 285° |
| 2026-05-04 23:03 | 33.64512 | -84.14302 | 4006 ft | 256 kts | 278° |
| 2026-05-04 23:03 | 33.64768 | -84.16374 | 3986 ft | 245 kts | 275° |
| 2026-05-04 23:03 | 33.64925 | -84.18336 | 3999 ft | 228 kts | 270° |
| 2026-05-04 23:04 | 33.64962 | -84.20213 | 4034 ft | 225 kts | 268° |
| 2026-05-04 23:04 | 33.64962 | -84.22082 | 4008 ft | 222 kts | 267° |
| 2026-05-04 23:04 | 33.64956 | -84.23926 | 4010 ft | 220 kts | 267° |
| 2026-05-04 23:04 | 33.64956 | -84.25763 | 3998 ft | 218 kts | 267° |
| 2026-05-04 23:05 | 33.64956 | -84.27581 | 3934 ft | 222 kts | 267° |
| 2026-05-04 23:05 | 33.64964 | -84.29515 | 3368 ft | 238 kts | 267° |
| 2026-05-04 23:05 | 33.64923 | -84.31514 | 2893 ft | 237 kts | 265° |
| 2026-05-04 23:05 | 33.64873 | -84.33456 | 2400 ft | 229 kts | 268° |
| 2026-05-04 23:06 | 33.64921 | -84.35326 | 1923 ft | 216 kts | 268° |
| 2026-05-04 23:06 | 33.64941 | -84.37033 | 1635 ft | 200 kts | 267° |
| 2026-05-04 23:06 | 33.64946 | -84.38647 | 1355 ft | 182 kts | 268° |
| 2026-05-04 23:06 | 33.64955 | -84.40069 | 1164 ft | 160 kts | 268° |
| 2026-05-04 23:07 | 33.64952 | -84.41317 | 1015 ft | 141 kts | 268° |
| 2026-05-04 23:07 | 33.64946 | -84.42343 | 1011 ft | 98 kts | 269° |
| 2026-05-04 23:07 | 33.64943 | -84.42938 | 1010 ft | 45 kts | 270° |
| 2026-05-04 23:07 | 33.64947 | -84.43251 | 1011 ft | 36 kts | 272° |
| 2026-05-04 23:08 | 33.64952 | -84.43540 | 1011 ft | 33 kts | 270° |
| 2026-05-04 23:08 | 33.64951 | -84.43769 | 1011 ft | 15 kts | 269° |
| 2026-05-04 23:08 | 33.64971 | -84.43879 | 1011 ft | 14 kts | 320° |
| 2026-05-04 23:08 | 33.65065 | -84.43867 | 1011 ft | 15 kts | 30° |
| 2026-05-04 23:09 | 33.65118 | -84.43761 | 1011 ft | 16 kts | 84° |
| 2026-05-04 23:09 | 33.65119 | -84.43624 | 1011 ft | 17 kts | 90° |
| 2026-05-04 23:09 | 33.65119 | -84.43477 | 1011 ft | 18 kts | 92° |
| 2026-05-04 23:09 | 33.65072 | -84.43337 | 1011 ft | 18 kts | 111° |
| 2026-05-04 23:10 | 33.65065 | -84.43183 | 1010 ft | 19 kts | 90° |
| 2026-05-04 23:10 | 33.65064 | -84.43020 | 1011 ft | 20 kts | 90° |
| 2026-05-04 23:10 | 33.65064 | -84.42857 | 1011 ft | 20 kts | 89° |
| 2026-05-04 23:10 | 33.65065 | -84.42694 | 1011 ft | 20 kts | 90° |
| 2026-05-04 23:11 | 33.65065 | -84.42530 | 1011 ft | 20 kts | 90° |
| 2026-05-04 23:11 | 33.65065 | -84.42367 | 1012 ft | 20 kts | 90° |
| 2026-05-04 23:11 | 33.65065 | -84.42206 | 1011 ft | 20 kts | 90° |
| 2026-05-04 23:11 | 33.65064 | -84.42043 | 1011 ft | 20 kts | 90° |
| 2026-05-04 23:12 | 33.65065 | -84.41880 | 1011 ft | 20 kts | 90° |
| 2026-05-04 23:12 | 33.65065 | -84.41717 | 1010 ft | 20 kts | 90° |
| 2026-05-04 23:12 | 33.65076 | -84.41555 | 1010 ft | 20 kts | 70° |
| 2026-05-04 23:12 | 33.65174 | -84.41457 | 1011 ft | 20 kts | 6° |
| 2026-05-04 23:13 | 33.65198 | -84.41455 | 1011 ft | 0 kts | 2° |
| 2026-05-04 23:13 | 33.65203 | -84.41455 | 1011 ft | 2 kts | 0° |
| 2026-05-04 23:13 | 33.65220 | -84.41455 | 1011 ft | 3 kts | 360° |
| 2026-05-04 23:14 | 33.65247 | -84.41455 | 1011 ft | 5 kts | 359° |
| 2026-05-04 23:14 | 33.65283 | -84.41466 | 1011 ft | 6 kts | 338° |
| 2026-05-04 23:14 | 33.65319 | -84.41442 | 1011 ft | 7 kts | 46° |
| 2026-05-04 23:14 | 33.65359 | -84.41400 | 1011 ft | 6 kts | 39° |
| 2026-05-04 23:15 | 33.65365 | -84.41394 | 1011 ft | 1 kts | 40° |
| 2026-05-04 23:15 | 33.65366 | -84.41393 | 1011 ft | 0 kts | 40° |